createdAt,value
2019-02-17T00:01:04.163Z,102012.98
2019-02-17T00:03:34.861Z,102013.06
2019-02-17T00:06:05.479Z,102022.48
2019-02-17T00:08:36.604Z,102015.31
2019-02-17T00:11:07.267Z,102020.80
2019-02-17T00:13:37.884Z,102016.84
2019-02-17T00:16:08.536Z,102018.53
2019-02-17T00:18:39.219Z,102016.45
2019-02-17T00:21:09.828Z,101959.95
2019-02-17T00:23:40.521Z,102016.42
2019-02-17T00:26:11.097Z,102020.02
2019-02-17T00:28:41.685Z,102022.84
2019-02-17T00:31:12.343Z,102017.31
2019-02-17T00:33:43.003Z,102017.07
2019-02-17T00:36:13.649Z,102013.94
2019-02-17T00:38:44.301Z,102021.59
2019-02-17T00:41:14.930Z,102023.67
2019-02-17T00:43:45.538Z,102023.55
2019-02-17T00:46:16.255Z,102023.40
2019-02-17T00:48:46.852Z,102023.40
2019-02-17T00:51:17.515Z,102031.98
2019-02-17T00:53:48.211Z,102025.11
2019-02-17T00:56:18.942Z,102028.70
2019-02-17T00:58:49.523Z,102021.24
2019-02-17T01:01:20.172Z,102017.56
2019-02-17T01:03:50.752Z,102028.39
2019-02-17T01:06:21.328Z,102024.06
2019-02-17T01:08:54.982Z,102026.89
2019-02-17T01:11:25.583Z,102021.89
2019-02-17T01:13:56.269Z,102022.08
2019-02-17T01:16:26.893Z,102017.47
2019-02-17T01:18:57.508Z,102018.02
2019-02-17T01:21:28.135Z,102026.06
2019-02-17T01:23:58.813Z,102014.55
2019-02-17T01:26:29.460Z,102025.94
2019-02-17T01:29:00.110Z,102021.53
2019-02-17T01:31:30.687Z,102023.95
2019-02-17T01:34:10.502Z,102020.02
2019-02-17T01:36:41.125Z,102016.52
2019-02-17T01:39:11.789Z,102010.20
2019-02-17T01:41:42.362Z,102013.48
2019-02-17T01:44:12.967Z,102009.46
2019-02-17T01:46:43.677Z,102010.38
2019-02-17T01:49:14.327Z,102006.70
2019-02-17T01:51:44.896Z,101998.88
2019-02-17T01:54:15.562Z,101996.14
2019-02-17T01:56:46.158Z,101994.94
2019-02-17T01:59:16.836Z,101994.27
2019-02-17T02:01:47.487Z,101994.73
2019-02-17T02:04:18.118Z,101992.48
2019-02-17T02:06:48.825Z,101992.09
2019-02-17T02:09:19.429Z,101991.53
2019-02-17T02:11:50.041Z,101989.66
2019-02-17T02:14:20.783Z,101978.61
2019-02-17T02:16:51.337Z,101982.84
2019-02-17T02:19:21.948Z,101978.89
2019-02-17T02:21:52.613Z,101981.53
2019-02-17T02:24:23.300Z,101977.02
2019-02-17T02:26:53.917Z,101976.34
2019-02-17T02:29:24.628Z,101977.56
2019-02-17T02:31:55.272Z,101986.44
2019-02-17T02:34:25.918Z,101983.61
2019-02-17T02:36:56.672Z,101985.58
2019-02-17T02:39:27.369Z,101978.52
2019-02-17T02:41:57.982Z,101981.75
2019-02-17T02:44:28.631Z,101979.11
2019-02-17T02:46:59.320Z,101977.39
2019-02-17T02:49:30.111Z,101969.19
2019-02-17T02:52:00.727Z,101970.14
2019-02-17T02:54:31.543Z,101973.24
2019-02-17T02:57:02.103Z,101975.52
2019-02-17T02:59:32.845Z,101975.52
2019-02-17T03:02:03.399Z,101976.19
2019-02-17T03:04:34.039Z,101975.52
2019-02-17T03:07:07.972Z,101978.34
2019-02-17T03:09:38.579Z,101982.30
2019-02-17T03:12:09.218Z,101980.30
2019-02-17T03:14:39.884Z,101980.98
2019-02-17T03:17:10.455Z,101985.98
2019-02-17T03:19:41.022Z,101989.27
2019-02-17T03:22:11.642Z,101982.94
2019-02-17T03:24:42.355Z,101987.39
2019-02-17T03:27:12.931Z,101980.02
2019-02-17T03:29:43.550Z,101984.11
2019-02-17T03:32:14.141Z,101982.11
2019-02-17T03:34:44.817Z,101980.42
2019-02-17T03:37:15.418Z,101985.89
2019-02-17T03:39:45.991Z,101992.86
2019-02-17T03:42:16.590Z,101983.98
2019-02-17T03:44:47.175Z,101979.66
2019-02-17T03:47:17.880Z,101973.06
2019-02-17T03:49:48.442Z,101975.42
2019-02-17T03:52:19.064Z,101978.16
2019-02-17T03:54:49.639Z,101981.47
2019-02-17T03:57:20.261Z,101982.52
2019-02-17T03:59:51.044Z,101982.23
2019-02-17T06:32:50.862Z,101981.81
2019-02-17T06:35:21.378Z,101984.19
2019-02-17T06:37:51.835Z,101990.63
2019-02-17T06:40:22.419Z,101983.66
2019-02-17T06:42:52.890Z,101991.49
2019-02-17T06:45:23.389Z,101993.34
2019-02-17T06:47:54.003Z,101993.70
2019-02-17T06:50:24.467Z,101999.05
2019-02-17T06:52:54.975Z,101992.97
2019-02-17T06:55:56.577Z,101999.48
2019-02-17T06:58:27.100Z,102002.27
2019-02-17T07:00:59.520Z,102008.19
2019-02-17T07:03:30.176Z,102005.33
2019-02-17T07:06:18.039Z,102002.70
2019-02-17T07:08:48.681Z,102007.88
2019-02-17T07:11:19.171Z,102008.55
2019-02-17T07:13:49.666Z,102007.72
2019-02-17T07:16:23.214Z,102009.76
2019-02-17T07:18:53.711Z,102017.65
2019-02-17T07:21:24.199Z,102017.13
2019-02-17T07:23:55.170Z,102011.95
2019-02-17T07:26:25.739Z,102014.73
2019-02-17T07:28:56.309Z,102011.12
2019-02-17T07:31:34.626Z,102013.53
2019-02-17T07:34:03.508Z,102013.23
2019-02-17T07:36:34.522Z,102012.41
2019-02-17T07:39:06.279Z,102012.00
2019-02-17T07:41:37.127Z,102014.03
2019-02-17T07:44:07.941Z,102016.31
2019-02-17T07:46:39.059Z,102020.03
2019-02-17T07:49:09.791Z,102011.12
2019-02-17T07:51:40.757Z,102004.86
2019-02-17T07:54:11.453Z,102008.47
2019-02-17T07:56:44.144Z,102008.16
2019-02-17T07:59:14.739Z,101999.03
2019-02-17T08:01:45.760Z,102005.12
2019-02-17T08:04:17.839Z,102007.56
2019-02-17T08:06:48.659Z,102005.95
2019-02-17T08:09:19.833Z,102009.74
2019-02-17T08:11:51.133Z,102011.99
2019-02-17T08:14:21.680Z,102012.52
2019-02-17T08:16:52.240Z,102010.45
2019-02-17T08:19:22.739Z,102007.72
2019-02-17T08:21:55.703Z,102010.27
2019-02-17T08:24:26.482Z,102011.66
2019-02-17T08:26:57.227Z,102017.74
2019-02-17T08:29:29.543Z,102006.66
2019-02-17T08:32:00.221Z,102002.30
2019-02-17T08:34:30.798Z,102008.08
2019-02-17T08:37:01.307Z,101999.66
2019-02-17T08:39:31.944Z,102000.56
2019-02-17T08:42:03.013Z,102001.72
2019-02-17T08:44:33.526Z,102003.91
2019-02-17T08:47:04.133Z,101999.41
2019-02-17T08:49:34.700Z,102001.47
2019-02-17T08:52:05.294Z,101999.05
2019-02-17T08:54:35.816Z,102008.48
2019-02-17T08:57:06.330Z,102001.55
2019-02-17T08:59:36.914Z,102001.68
2019-02-17T09:02:07.721Z,101998.45
2019-02-17T09:04:38.166Z,102000.56
2019-02-17T09:07:08.964Z,101994.19
2019-02-17T09:09:39.479Z,101992.02
2019-02-17T09:12:09.989Z,101984.12
2019-02-17T09:14:40.594Z,101986.83
2019-02-17T09:17:11.147Z,101988.80
2019-02-17T09:19:41.716Z,101993.03
2019-02-17T09:22:12.209Z,101995.78
2019-02-17T09:24:42.935Z,101999.28
2019-02-17T09:27:13.450Z,101988.36
2019-02-17T09:29:43.911Z,101988.67
2019-02-17T09:32:16.657Z,101992.26
2019-02-17T09:34:46.989Z,101991.88
2019-02-17T09:37:17.627Z,101996.78
2019-02-17T09:39:48.194Z,101993.76
2019-02-17T09:42:18.664Z,101989.59
2019-02-17T09:44:49.246Z,101995.52
2019-02-17T09:47:19.730Z,101994.73
2019-02-17T09:49:50.253Z,101997.00
2019-02-17T09:52:20.886Z,101993.04
2019-02-17T09:54:51.417Z,101987.45
2019-02-17T09:57:21.859Z,101986.77
2019-02-17T09:59:52.821Z,101989.77
2019-02-17T10:02:26.500Z,101982.75
2019-02-17T10:04:56.694Z,101982.73
2019-02-17T10:07:27.308Z,101984.31
2019-02-17T10:09:57.850Z,101985.11
2019-02-17T10:12:28.386Z,101986.55
2019-02-17T10:14:58.972Z,101984.70
2019-02-17T10:17:31.142Z,101979.08
2019-02-17T10:20:01.855Z,101979.59
2019-02-17T10:22:32.418Z,101973.05
2019-02-17T10:25:02.963Z,101970.14
2019-02-17T10:27:33.697Z,101968.48
2019-02-17T10:30:04.619Z,101968.48
2019-02-17T10:32:38.984Z,101964.89
2019-02-17T10:35:08.103Z,101964.27
2019-02-17T10:37:38.830Z,101957.61
2019-02-17T10:40:12.097Z,101957.94
2019-02-17T10:42:42.678Z,101953.05
2019-02-17T10:45:13.586Z,101946.94
2019-02-17T10:47:44.311Z,101944.91
2019-02-17T10:50:14.903Z,101946.13
2019-02-17T10:52:45.477Z,101941.92
2019-02-17T10:55:16.130Z,101944.64
2019-02-17T10:57:47.267Z,101939.17
2019-02-17T11:00:19.732Z,101941.95
2019-02-17T11:02:50.812Z,101939.97
2019-02-17T11:05:22.981Z,101937.99
2019-02-17T11:07:53.571Z,101935.23
2019-02-17T11:10:24.110Z,101931.10
2019-02-17T11:12:54.662Z,101935.23
2019-02-17T11:15:25.271Z,101927.41
2019-02-17T11:17:56.181Z,101923.62
2019-02-17T11:20:26.696Z,101922.25
2019-02-17T11:22:57.257Z,101923.69
2019-02-17T11:25:27.835Z,101921.66
2019-02-17T11:27:58.397Z,101913.18
2019-02-17T11:30:28.943Z,101908.48
2019-02-17T11:32:59.600Z,101905.34
2019-02-17T11:35:30.166Z,101907.98
2019-02-17T11:38:00.791Z,101904.80
2019-02-17T11:40:31.362Z,101898.67
2019-02-17T11:43:01.960Z,101889.14
2019-02-17T11:45:32.835Z,101894.85
2019-02-17T11:48:03.983Z,101888.58
2019-02-17T11:50:34.761Z,101876.31
2019-02-17T11:53:05.316Z,101875.86
2019-02-17T11:55:35.873Z,101876.20
2019-02-17T11:58:06.382Z,101878.39
2019-02-17T12:00:36.930Z,101869.97
2019-02-17T12:03:08.375Z,101868.76
2019-02-17T12:05:39.123Z,101863.23
2019-02-17T12:08:09.611Z,101859.34
2019-02-17T12:10:40.265Z,101859.60
2019-02-17T12:13:10.876Z,101852.98
2019-02-17T12:15:41.440Z,101851.16
2019-02-17T12:18:12.079Z,101846.00
2019-02-17T12:21:07.410Z,101848.05
2019-02-17T12:23:43.567Z,101845.88
2019-02-17T12:26:33.011Z,101840.20
2019-02-17T12:29:09.807Z,101836.94
2019-02-17T12:31:41.017Z,101828.12
2019-02-17T12:34:11.580Z,101833.80
2019-02-17T12:36:42.125Z,101832.12
2019-02-17T12:39:15.091Z,101828.50
2019-02-17T12:41:48.192Z,101820.19
2019-02-17T12:44:19.115Z,101814.84
2019-02-17T12:46:49.826Z,101813.55
2019-02-17T12:49:20.451Z,101808.09
2019-02-17T12:51:51.056Z,101813.51
2019-02-17T12:54:28.858Z,101800.42
2019-02-17T12:56:53.872Z,101798.49
2019-02-17T12:59:24.667Z,101795.34
2019-02-17T13:01:55.167Z,101786.66
2019-02-17T13:04:25.818Z,101783.25
2019-02-17T13:06:56.478Z,101778.33
2019-02-17T13:09:27.018Z,101771.01
2019-02-17T13:11:57.537Z,101776.96
2019-02-17T13:14:28.318Z,101771.41
2019-02-17T13:16:58.982Z,101767.60
2019-02-17T13:19:29.595Z,101768.93
2019-02-17T13:22:00.299Z,101763.83
2019-02-17T13:24:31.086Z,101766.48
2019-02-17T13:27:01.690Z,101751.31
2019-02-17T13:29:32.326Z,101753.38
2019-02-17T13:32:02.938Z,101748.11
2019-02-17T13:34:33.490Z,101746.95
2019-02-17T13:37:04.055Z,101742.81
2019-02-17T13:39:34.626Z,101739.36
2019-02-17T13:42:05.167Z,101730.86
2019-02-17T13:44:35.840Z,101730.16
2019-02-17T13:47:06.440Z,101732.82
2019-02-17T13:49:37.128Z,101727.86
2019-02-17T13:52:09.317Z,101728.03
2019-02-17T13:54:39.921Z,101727.66
2019-02-17T13:57:10.413Z,101730.64
2019-02-17T13:59:41.118Z,101726.62
2019-02-17T14:02:11.848Z,101727.33
2019-02-17T14:04:45.912Z,101732.38
2019-02-17T14:07:16.544Z,101721.44
2019-02-17T14:09:47.183Z,101721.44
2019-02-17T14:12:17.693Z,101717.23
2019-02-17T14:14:48.377Z,101718.28
2019-02-17T14:17:19.123Z,101712.24
2019-02-17T14:19:49.951Z,101715.22
2019-02-17T14:22:20.480Z,101714.69
2019-02-17T14:24:50.941Z,101711.37
2019-02-17T14:27:21.586Z,101710.58
2019-02-17T14:29:53.803Z,101696.38
2019-02-17T14:32:24.798Z,101691.75
2019-02-17T14:34:55.359Z,101689.92
2019-02-17T14:37:26.095Z,101688.80
2019-02-17T14:39:56.796Z,101686.73
2019-02-17T14:42:27.295Z,101688.06
2019-02-17T14:44:58.379Z,101685.91
2019-02-17T14:47:29.009Z,101681.20
2019-02-17T14:49:59.560Z,101683.17
2019-02-17T14:52:30.383Z,101681.79
2019-02-17T14:55:00.940Z,101681.76
2019-02-17T14:57:31.466Z,101674.28
2019-02-17T15:00:02.100Z,101677.81
2019-02-17T15:02:54.641Z,101673.85
2019-02-17T15:05:25.222Z,101671.39
2019-02-17T15:07:55.990Z,101671.36
2019-02-17T15:10:26.547Z,101673.81
2019-02-17T15:12:57.159Z,101667.58
2019-02-17T15:15:29.055Z,101666.52
2019-02-17T15:17:59.957Z,101666.57
2019-02-17T15:20:30.743Z,101662.48
2019-02-17T15:23:02.051Z,101666.00
2019-02-17T15:25:32.591Z,101668.22
2019-02-17T15:28:03.398Z,101673.52
2019-02-17T15:30:34.105Z,101670.28
2019-02-17T15:33:04.685Z,101670.30
2019-02-17T15:35:35.209Z,101675.71
2019-02-17T15:38:05.822Z,101673.55
2019-02-17T15:40:36.458Z,101672.58
2019-02-17T15:43:07.200Z,101669.03
2019-02-17T15:45:37.807Z,101662.38
2019-02-17T15:48:08.401Z,101661.16
2019-02-17T15:50:39.085Z,101661.09
2019-02-17T15:53:09.588Z,101654.81
2019-02-17T15:55:40.266Z,101654.05
2019-02-17T15:58:10.731Z,101652.90
2019-02-17T16:00:41.216Z,101655.00
2019-02-17T16:03:11.752Z,101643.27
2019-02-17T16:05:42.290Z,101646.06
2019-02-17T16:08:12.787Z,101652.27
2019-02-17T16:10:43.319Z,101645.41
2019-02-17T16:13:13.862Z,101652.43
2019-02-17T16:15:44.783Z,101644.44
2019-02-17T16:18:15.653Z,101640.12
2019-02-17T16:20:46.200Z,101637.65
2019-02-17T16:23:16.788Z,101647.20
2019-02-17T16:25:47.691Z,101634.64
2019-02-17T16:28:18.898Z,101639.65
2019-02-17T16:30:49.390Z,101642.54
2019-02-17T16:33:19.932Z,101637.88
2019-02-17T16:35:50.801Z,101638.49
2019-02-17T16:38:21.401Z,101639.69
2019-02-17T16:40:51.925Z,101637.48
2019-02-17T16:43:22.851Z,101642.80
2019-02-17T16:45:53.553Z,101645.17
2019-02-17T16:48:24.243Z,101639.82
2019-02-17T16:50:54.762Z,101641.72
2019-02-17T16:53:25.706Z,101642.03
2019-02-17T16:55:56.895Z,101644.02
2019-02-17T16:58:27.468Z,101650.05
2019-02-17T17:00:57.995Z,101656.80
2019-02-17T17:03:28.479Z,101658.51
2019-02-17T17:05:59.005Z,101662.25
2019-02-17T17:08:29.522Z,101663.38
2019-02-17T17:11:00.079Z,101656.33
2019-02-17T17:13:30.595Z,101658.45
2019-02-17T17:16:01.089Z,101655.61
2019-02-17T17:18:31.614Z,101654.26
2019-02-17T17:21:02.787Z,101652.86
2019-02-17T17:23:33.471Z,101650.89
2019-02-17T17:26:04.111Z,101650.11
2019-02-17T17:28:34.912Z,101650.77
2019-02-17T17:31:05.417Z,101648.27
2019-02-17T17:33:36.005Z,101653.06
2019-02-17T17:36:18.093Z,101642.27
2019-02-17T17:38:48.325Z,101647.92
2019-02-17T17:41:18.836Z,101643.44
2019-02-17T17:43:49.337Z,101645.69
2019-02-17T17:46:19.884Z,101648.90
2019-02-17T17:48:51.689Z,101654.52
2019-02-17T17:51:22.189Z,101658.84
2019-02-17T17:53:52.728Z,101660.98
2019-02-17T17:56:23.255Z,101652.90
2019-02-17T17:58:53.859Z,101653.81
2019-02-17T18:01:24.366Z,101650.89
2019-02-17T18:03:54.885Z,101650.06
2019-02-17T18:06:25.388Z,101651.91
2019-02-17T18:08:55.896Z,101652.89
2019-02-17T18:11:26.464Z,101655.52
2019-02-17T18:13:56.901Z,101655.60
2019-02-17T18:16:27.407Z,101658.10
2019-02-17T18:18:57.947Z,101654.00
2019-02-17T18:21:28.483Z,101657.16
2019-02-17T18:23:59.466Z,101659.37
2019-02-17T18:26:30.549Z,101654.05
2019-02-17T18:29:01.091Z,101651.19
2019-02-17T18:31:32.018Z,101650.90
2019-02-17T18:34:02.509Z,101650.90
2019-02-17T18:36:36.863Z,101651.88
2019-02-17T18:39:08.980Z,101659.09
2019-02-17T18:41:39.460Z,101651.57
2019-02-17T18:44:13.638Z,101649.95
2019-02-17T18:46:44.159Z,101655.28
2019-02-17T18:49:14.703Z,101651.58
2019-02-17T18:51:45.311Z,101657.95
2019-02-17T18:54:15.841Z,101654.06
2019-02-17T18:56:46.347Z,101654.55
2019-02-17T18:59:16.952Z,101653.41
2019-02-17T19:01:50.126Z,101656.66
2019-02-17T19:04:20.728Z,101654.59
2019-02-17T19:06:51.350Z,101646.50
2019-02-17T19:09:22.147Z,101643.88
2019-02-17T19:11:52.625Z,101642.04
2019-02-17T19:14:23.225Z,101641.48
2019-02-17T19:16:54.125Z,101640.48
2019-02-17T19:19:26.364Z,101642.50
2019-02-17T19:21:57.013Z,101643.51
2019-02-17T19:24:27.660Z,101641.27
2019-02-17T19:26:58.249Z,101630.47
2019-02-17T19:29:29.030Z,101630.33
2019-02-17T19:31:59.559Z,101625.88
2019-02-17T19:34:30.244Z,101632.48
2019-02-17T19:37:00.828Z,101636.27
2019-02-17T19:39:31.347Z,101631.33
2019-02-17T19:42:01.885Z,101630.80
2019-02-17T19:44:32.426Z,101629.81
2019-02-17T19:47:03.400Z,101629.86
2019-02-17T19:49:47.011Z,101623.08
2019-02-17T19:52:18.400Z,101618.95
2019-02-17T19:54:49.170Z,101618.95
2019-02-17T19:57:19.817Z,101616.02
2019-02-17T19:59:50.451Z,101610.02
2019-02-17T20:02:28.362Z,101607.63
2019-02-17T20:05:11.624Z,101607.47
2019-02-17T20:07:42.203Z,101607.17
2019-02-17T20:10:12.711Z,101613.86
2019-02-17T20:12:43.340Z,101603.92
2019-02-17T20:15:13.937Z,101606.86
2019-02-17T20:17:44.562Z,101608.02
2019-02-17T20:20:15.248Z,101602.95
2019-02-17T20:22:45.900Z,101609.46
2019-02-17T20:25:19.217Z,101603.83
2019-02-17T20:27:49.729Z,101603.61
2019-02-17T20:30:20.680Z,101602.30
2019-02-17T20:32:51.254Z,101600.05
2019-02-17T20:35:22.052Z,101607.53
2019-02-17T20:37:52.608Z,101602.30
2019-02-17T20:40:30.223Z,101602.67
2019-02-17T20:43:00.788Z,101599.34
2019-02-17T20:45:31.317Z,101596.50
2019-02-17T20:48:03.109Z,101599.59
2019-02-17T20:50:33.904Z,101604.45
2019-02-17T20:53:04.625Z,101602.84
2019-02-17T20:55:35.244Z,101605.16
2019-02-17T20:58:05.874Z,101610.41
2019-02-17T21:00:36.504Z,101612.31
2019-02-17T21:03:07.101Z,101610.63
2019-02-17T21:05:37.614Z,101607.56
2019-02-17T21:08:08.296Z,101611.41
2019-02-17T21:10:40.493Z,101612.24
2019-02-17T21:13:11.300Z,101611.80
2019-02-17T21:15:42.185Z,101611.88
2019-02-17T21:18:12.936Z,101611.71
2019-02-17T21:20:43.583Z,101612.79
2019-02-17T21:23:15.377Z,101611.94
2019-02-17T21:25:48.588Z,101608.08
2019-02-17T21:28:20.830Z,101613.51
2019-02-17T21:31:10.588Z,101604.79
2019-02-17T21:33:44.911Z,101601.17
2019-02-17T21:36:23.203Z,101601.97
2019-02-17T21:38:50.232Z,101607.31
2019-02-17T21:41:21.246Z,101617.99
2019-02-17T21:43:52.339Z,101614.25
2019-02-17T21:46:22.931Z,101618.11
2019-02-17T21:48:53.581Z,101616.19
2019-02-17T21:51:24.166Z,101612.50
2019-02-17T21:53:54.662Z,101610.27
2019-02-17T21:56:25.179Z,101614.81
2019-02-17T21:58:56.917Z,101612.20
2019-02-17T22:01:27.489Z,101614.81
2019-02-17T22:03:58.061Z,101620.81
2019-02-17T22:06:33.555Z,101622.66
2019-02-17T22:09:00.932Z,101613.89
2019-02-17T22:11:32.688Z,101610.95
2019-02-17T22:14:03.447Z,101605.02
2019-02-17T22:16:34.022Z,101606.83
2019-02-17T22:19:04.642Z,101597.73
2019-02-17T22:21:35.265Z,101599.64
2019-02-17T22:24:05.822Z,101603.56
2019-02-17T22:26:36.439Z,101602.42
2019-02-17T22:29:07.127Z,101594.52
2019-02-17T22:31:37.696Z,101591.84
2019-02-17T22:34:08.401Z,101591.59
2019-02-17T22:36:43.778Z,101588.34
2019-02-17T22:39:11.437Z,101587.28
2019-02-17T22:41:42.042Z,101587.28
2019-02-17T22:44:12.827Z,101593.16
2019-02-17T22:46:43.389Z,101592.09
2019-02-17T22:49:14.089Z,101597.00
2019-02-17T22:51:44.607Z,101596.81
2019-02-17T22:54:15.179Z,101594.33
2019-02-17T22:56:45.803Z,101591.43
2019-02-17T22:59:16.436Z,101595.73
2019-02-17T23:01:47.580Z,101593.37
2019-02-17T23:04:18.163Z,101587.77
2019-02-17T23:06:54.053Z,101594.88
2019-02-17T23:09:21.176Z,101591.78
2019-02-17T23:11:51.857Z,101588.43
2019-02-17T23:14:22.460Z,101582.13
2019-02-17T23:16:52.995Z,101592.06
2019-02-17T23:19:23.588Z,101589.85
2019-02-17T23:21:54.231Z,101591.28
2019-02-17T23:24:24.989Z,101591.70
2019-02-17T23:26:55.559Z,101585.56
2019-02-17T23:29:26.218Z,101593.41
2019-02-17T23:31:56.850Z,101589.66
2019-02-17T23:34:27.439Z,101587.91
2019-02-17T23:37:04.033Z,101589.59
2019-02-17T23:39:30.296Z,101592.21
2019-02-17T23:42:00.974Z,101591.67
2019-02-17T23:44:31.977Z,101583.34
2019-02-17T23:47:02.517Z,101584.12
2019-02-17T23:49:33.115Z,101580.91
2019-02-17T23:52:03.663Z,101581.39
2019-02-17T23:54:34.314Z,101578.52
2019-02-17T23:57:04.922Z,101580.47
2019-02-17T23:59:35.521Z,101578.25
